Time;durP1;ratioP1;P1;durP2;ratioP2;P2;SDS_P1;SDS_P2;PMS_P1;PMS_P2;Temp;Humidity;BMP_temperature;BMP_pressure;BME280_temperature;BME280_humidity;BME280_pressure;Samples;Min_cycle;Max_cycle;Signal;HPM_P1;HPM_P2
2022/05/28 00:01:05;;;;;;;1.83;1.02;;;12.30;98.10;;;;;;5011358;28;20033;-79
2022/05/28 00:03:32;;;;;;;4.93;0.90;;;12.30;98.40;;;;;;5012979;28;20029;-77
2022/05/28 00:05:58;;;;;;;7.25;1.05;;;12.30;98.30;;;;;;5012465;28;20371;-77
2022/05/28 00:08:24;;;;;;;4.97;1.27;;;12.30;98.60;;;;;;5011234;28;20171;-77
2022/05/28 00:10:51;;;;;;;10.85;1.25;;;12.40;98.60;;;;;;5028017;28;20034;-77
2022/05/28 00:13:17;;;;;;;9.27;1.27;;;12.60;98.30;;;;;;5012766;28;20036;-77
2022/05/28 00:15:43;;;;;;;7.45;1.60;;;12.50;98.40;;;;;;5012675;28;20113;-77
2022/05/28 00:18:09;;;;;;;9.60;1.88;;;12.60;98.30;;;;;;5012544;28;20057;-77
2022/05/28 00:20:37;;;;;;;13.52;1.65;;;12.60;97.90;;;;;;5012541;28;20052;-77
2022/05/28 00:23:04;;;;;;;14.77;2.42;;;12.60;98.70;;;;;;5012084;28;20121;-77
2022/05/28 00:25:29;;;;;;;12.80;2.45;;;12.50;98.10;;;;;;5012112;28;20026;-76
2022/05/28 00:27:55;;;;;;;11.98;1.60;;;12.50;98.50;;;;;;5011954;28;20022;-77
2022/05/28 00:30:21;;;;;;;5.50;1.33;;;12.60;98.80;;;;;;5012754;28;20018;-78
2022/05/28 00:32:47;;;;;;;10.68;2.38;;;12.70;98.20;;;;;;5011801;28;20026;-77
2022/05/28 00:35:16;;;;;;;10.35;1.40;;;12.60;98.00;;;;;;5011908;28;20037;-77
2022/05/28 00:37:42;;;;;;;16.02;2.28;;;12.50;98.10;;;;;;5011958;28;20467;-76
2022/05/28 00:40:13;;;;;;;13.82;1.92;;;12.30;98.50;;;;;;5011689;28;20036;-77
2022/05/28 00:42:39;;;;;;;10.02;1.80;;;12.30;98.80;;;;;;5027758;28;20364;-78
2022/05/28 00:45:05;;;;;;;16.67;1.73;;;12.20;98.60;;;;;;5012057;28;20033;-78
2022/05/28 00:47:31;;;;;;;11.38;1.88;;;12.20;98.60;;;;;;5027186;28;20038;-77
2022/05/28 00:49:58;;;;;;;8.48;1.67;;;12.20;99.20;;;;;;5011718;28;20049;-78
2022/05/28 00:52:26;;;;;;;5.78;1.23;;;12.00;99.80;;;;;;5010557;28;20056;-78
2022/05/28 00:54:52;;;;;;;;;;;12.10;99.40;;;;;;5012110;28;20555;-78
2022/05/28 00:57:20;;;;;;;10.80;1.75;;;12.20;99.40;;;;;;5012632;28;19996;-78
2022/05/28 00:59:45;;;;;;;6.22;1.13;;;12.10;99.40;;;;;;5010480;28;20037;-77
2022/05/28 01:02:39;;;;;;;10.65;1.60;;;12.10;99.60;;;;;;5011621;28;20036;-79
2022/05/28 01:05:20;;;;;;;13.30;1.50;;;12.10;99.50;;;;;;5011853;28;20541;-77
2022/05/28 01:08:10;;;;;;;12.30;1.48;;;12.20;99.40;;;;;;5011671;28;20034;-78
2022/05/28 01:10:44;;;;;;;9.63;1.92;;;12.30;99.40;;;;;;5010240;28;20037;-78
2022/05/28 01:13:10;;;;;;;6.05;1.50;;;12.10;99.20;;;;;;5010527;28;20064;-79
2022/05/28 01:15:41;;;;;;;7.40;1.80;;;12.10;99.40;;;;;;5011355;28;20037;-78
2022/05/28 01:18:12;;;;;;;12.80;1.48;;;12.30;99.40;;;;;;5011415;28;20052;-79
2022/05/28 01:20:47;;;;;;;10.07;1.92;;;12.30;99.60;;;;;;5011299;28;20148;-78
2022/05/28 01:23:41;;;;;;;20.33;2.08;;;12.30;99.30;;;;;;5011143;28;20087;-78
2022/05/28 01:26:20;;;;;;;10.88;1.75;;;12.30;99.10;;;;;;5011277;28;20100;-77
2022/05/28 01:28:56;;;;;;;10.43;1.35;;;12.30;99.50;;;;;;5011021;28;20038;-78
2022/05/28 01:31:26;;;;;;;10.68;1.58;;;12.40;99.80;;;;;;5010968;28;20050;-77
2022/05/28 01:33:52;;;;;;;13.23;1.70;;;12.40;99.90;;;;;;5010928;28;20476;-77
2022/05/28 01:36:18;;;;;;;13.32;1.75;;;12.40;99.90;;;;;;5023393;28;20026;-77
2022/05/28 01:38:45;;;;;;;8.32;1.55;;;12.00;99.90;;;;;;5030775;28;20029;-76
2022/05/28 01:41:13;;;;;;;5.35;1.20;;;12.00;99.90;;;;;;5028846;28;20046;-76
2022/05/28 01:43:42;;;;;;;5.13;0.70;;;12.10;99.80;;;;;;5030124;28;20049;-78
2022/05/28 01:46:11;;;;;;;11.20;1.20;;;12.10;99.90;;;;;;5030581;28;20033;-77
2022/05/28 01:48:39;;;;;;;14.90;2.05;;;12.20;99.90;;;;;;5030924;28;20037;-77
2022/05/28 01:51:07;;;;;;;4.43;1.15;;;11.90;99.90;;;;;;5030675;28;20030;-77
2022/05/28 01:56:21;;;;;;;10.55;1.67;;;12.20;99.90;;;;;;5030604;28;20497;-76
2022/05/28 01:58:47;;;;;;;10.48;1.58;;;12.20;99.90;;;;;;5030610;28;20026;-75
2022/05/28 02:01:12;;;;;;;8.05;1.48;;;12.00;99.90;;;;;;5030084;28;20521;-77
2022/05/28 02:03:45;;;;;;;11.48;1.80;;;12.10;99.90;;;;;;5030793;28;20104;-76
2022/05/28 02:06:11;;;;;;;9.73;1.35;;;11.90;99.90;;;;;;5049156;28;20045;-76
2022/05/28 02:08:40;;;;;;;7.25;1.15;;;11.90;99.70;;;;;;5034783;28;20132;-77
2022/05/28 02:11:20;;;;;;;13.00;1.38;;;11.80;99.90;;;;;;5030257;28;20033;-77
2022/05/28 02:13:46;;;;;;;7.55;1.05;;;11.80;99.90;;;;;;5029189;28;20041;-77
2022/05/28 02:16:20;;;;;;;8.18;1.70;;;11.80;99.90;;;;;;5028958;28;20021;-77
2022/05/28 02:18:56;;;;;;;3.55;0.82;;;11.90;99.90;;;;;;5030384;28;20091;-77
2022/05/28 02:21:49;;;;;;;6.15;1.15;;;11.90;99.90;;;;;;5030720;28;20376;-78
2022/05/28 02:24:25;;;;;;;11.48;1.50;;;11.90;99.90;;;;;;5050412;28;20146;-78
2022/05/28 02:26:57;;;;;;;6.90;1.42;;;11.80;99.90;;;;;;5048896;28;20029;-77
2022/05/28 02:29:23;;;;;;;4.60;1.05;;;11.90;99.90;;;;;;5050279;28;20021;-77
2022/05/28 02:31:49;;;;;;;5.80;0.98;;;11.80;99.90;;;;;;5049949;28;20017;-79
2022/05/28 02:34:17;;;;;;;11.88;1.15;;;11.90;99.90;;;;;;5049752;28;20154;-78
2022/05/28 02:36:43;;;;;;;7.10;0.83;;;12.00;99.90;;;;;;5049305;28;20024;-78
2022/05/28 02:39:09;;;;;;;6.75;1.00;;;12.00;99.90;;;;;;5050052;28;20094;-76
2022/05/28 02:41:35;;;;;;;8.68;1.13;;;11.90;99.90;;;;;;5034623;28;20044;-78
2022/05/28 02:44:00;;;;;;;5.38;1.00;;;11.90;99.90;;;;;;5030040;28;20034;-78
2022/05/28 02:46:26;;;;;;;8.50;1.30;;;12.00;99.90;;;;;;5030247;28;20036;-79
2022/05/28 02:48:52;;;;;;;6.95;1.08;;;11.90;99.90;;;;;;5029841;28;20048;-78
2022/05/28 02:51:20;;;;;;;7.97;1.08;;;11.90;99.90;;;;;;5030283;28;20072;-78
2022/05/28 02:53:48;;;;;;;3.42;0.90;;;11.90;99.90;;;;;;5029967;28;20064;-78
2022/05/28 02:56:14;;;;;;;7.05;1.33;;;11.90;99.90;;;;;;5032513;28;20037;-78
2022/05/28 02:58:40;;;;;;;6.35;1.40;;;11.90;99.90;;;;;;5033274;28;20045;-79
2022/05/28 03:01:29;;;;;;;8.88;1.33;;;11.90;99.90;;;;;;5033398;28;20072;-78
2022/05/28 03:03:56;;;;;;;13.70;1.67;;;11.90;99.90;;;;;;5033309;28;20495;-79
2022/05/28 03:06:22;;;;;;;6.78;1.38;;;12.00;99.90;;;;;;5034008;28;20249;-77
2022/05/28 03:08:48;;;;;;;7.55;1.20;;;11.70;99.90;;;;;;5033565;28;20549;-79
2022/05/28 03:11:14;;;;;;;16.00;1.67;;;11.70;99.90;;;;;;5033661;28;20041;-79
2022/05/28 03:13:40;;;;;;;7.20;1.45;;;11.80;99.90;;;;;;5033515;28;20503;-78
2022/05/28 03:16:07;;;;;;;12.15;1.60;;;11.80;99.90;;;;;;5033402;28;20041;-78
2022/05/28 03:18:33;;;;;;;8.63;1.60;;;11.80;99.90;;;;;;5033814;28;20033;-78
2022/05/28 03:20:59;;;;;;;6.72;1.45;;;11.80;99.90;;;;;;5033360;28;20352;-79
2022/05/28 03:23:25;;;;;;;8.13;1.55;;;11.80;99.90;;;;;;5033220;28;20129;-78
2022/05/28 03:25:51;;;;;;;22.20;1.73;;;11.80;99.90;;;;;;5033008;28;20028;-77
2022/05/28 03:28:16;;;;;;;8.88;1.38;;;11.60;99.90;;;;;;5032989;28;20336;-79
2022/05/28 03:30:42;;;;;;;18.33;2.85;;;11.60;99.90;;;;;;5032392;28;20029;-77
2022/05/28 03:33:08;;;;;;;12.43;1.38;;;11.60;99.90;;;;;;5031892;28;20035;-79
2022/05/28 03:35:33;;;;;;;8.48;1.30;;;11.60;99.90;;;;;;5032892;28;20090;-78
2022/05/28 03:37:59;;;;;;;6.63;1.80;;;11.60;99.90;;;;;;5032547;28;20409;-78
2022/05/28 03:40:25;;;;;;;8.00;1.33;;;11.60;99.90;;;;;;5032664;28;20466;-79
2022/05/28 03:42:50;;;;;;;10.65;2.58;;;11.60;99.90;;;;;;5032788;28;20025;-78
2022/05/28 03:45:16;;;;;;;13.75;1.70;;;11.60;99.90;;;;;;5033068;28;20236;-77
2022/05/28 03:47:42;;;;;;;16.35;2.13;;;11.60;99.90;;;;;;5031610;28;20451;-78
2022/05/28 03:50:08;;;;;;;6.82;1.70;;;11.40;99.90;;;;;;5032885;28;20363;-78
2022/05/28 03:52:33;;;;;;;12.15;1.80;;;11.50;99.90;;;;;;5032496;28;20030;-78
2022/05/28 03:54:59;;;;;;;11.70;2.35;;;11.50;99.90;;;;;;5032658;28;20130;-77
2022/05/28 03:57:29;;;;;;;11.73;2.17;;;11.60;99.90;;;;;;5033061;28;20445;-77
2022/05/28 03:59:56;;;;;;;10.63;1.65;;;11.50;99.90;;;;;;5032465;28;20471;-77
2022/05/28 04:02:22;;;;;;;12.57;2.08;;;11.40;99.90;;;;;;5032160;28;20057;-77
2022/05/28 04:04:48;;;;;;;16.70;3.53;;;11.40;99.90;;;;;;5032245;28;20057;-78
2022/05/28 04:07:14;;;;;;;13.48;2.33;;;11.50;99.90;;;;;;5031495;28;20481;-78
2022/05/28 04:09:40;;;;;;;12.98;1.95;;;11.50;99.90;;;;;;5033234;28;20030;-79
2022/05/28 04:12:06;;;;;;;9.15;1.48;;;11.50;99.90;;;;;;5032381;28;20064;-79
2022/05/28 04:14:32;;;;;;;11.05;1.98;;;11.50;99.90;;;;;;5031231;28;20415;-77
2022/05/28 04:16:58;;;;;;;13.30;1.40;;;11.40;99.90;;;;;;5032301;28;20041;-80
2022/05/28 04:19:24;;;;;;;11.70;1.60;;;11.40;99.90;;;;;;5030852;28;20091;-78
2022/05/28 04:21:49;;;;;;;5.95;1.42;;;11.40;99.90;;;;;;5032078;28;20379;-78
2022/05/28 04:24:15;;;;;;;14.43;1.92;;;11.40;99.90;;;;;;5031355;28;20036;-78
2022/05/28 04:26:41;;;;;;;12.40;2.10;;;11.50;99.90;;;;;;5032160;28;20113;-77
2022/05/28 04:29:07;;;;;;;12.80;1.60;;;11.50;99.90;;;;;;5032026;28;20041;-78
2022/05/28 04:31:32;;;;;;;11.52;1.90;;;11.50;99.90;;;;;;5031997;28;20033;-78
2022/05/28 04:33:58;;;;;;;8.90;1.45;;;11.30;99.90;;;;;;5031637;28;20352;-78
2022/05/28 04:36:24;;;;;;;8.40;1.40;;;11.40;99.90;;;;;;5032143;28;20029;-79
2022/05/28 04:38:50;;;;;;;16.20;1.83;;;11.50;99.90;;;;;;5031617;28;20033;-79
2022/05/28 04:41:15;;;;;;;8.15;1.67;;;11.70;99.90;;;;;;5031434;28;20057;-77
2022/05/28 04:43:41;;;;;;;10.70;1.67;;;11.70;99.90;;;;;;5031752;28;20056;-79
2022/05/28 04:46:06;;;;;;;8.55;1.70;;;11.70;99.70;;;;;;5031494;28;20029;-79
2022/05/28 04:48:33;;;;;;;9.15;1.67;;;11.80;99.70;;;;;;5031851;28;20490;-78
2022/05/28 04:50:59;;;;;;;7.20;1.60;;;11.80;99.30;;;;;;5031489;28;20030;-78
2022/05/28 04:53:25;;;;;;;15.25;1.75;;;11.80;99.30;;;;;;5031841;28;20029;-77
2022/05/28 04:55:50;;;;;;;11.73;1.58;;;11.80;99.10;;;;;;5031550;28;20447;-76
2022/05/28 04:58:16;;;;;;;11.27;1.50;;;11.70;99.10;;;;;;5031363;28;20065;-77
2022/05/28 05:00:44;;;;;;;14.70;1.90;;;11.80;99.30;;;;;;5031667;28;20119;-78
2022/05/28 05:03:09;;;;;;;11.38;1.77;;;11.80;99.10;;;;;;5030498;28;20048;-78
2022/05/28 05:05:35;;;;;;;10.70;1.55;;;11.80;99.20;;;;;;5031433;28;20041;-78
2022/05/28 05:08:01;;;;;;;12.63;1.83;;;11.90;98.90;;;;;;5029969;28;20029;-76
2022/05/28 05:10:27;;;;;;;13.90;1.52;;;12.00;99.00;;;;;;5030921;28;20467;-76
2022/05/28 05:12:52;;;;;;;9.85;2.05;;;11.90;98.80;;;;;;5031126;28;20459;-77
2022/05/28 05:15:18;;;;;;;10.07;1.73;;;11.90;98.70;;;;;;5031285;28;20029;-77
2022/05/28 05:17:44;;;;;;;12.30;1.92;;;11.90;98.90;;;;;;5029690;28;20037;-77
2022/05/28 05:20:12;;;;;;;15.10;1.77;;;11.90;98.70;;;;;;5031037;28;20035;-77
2022/05/28 05:22:38;;;;;;;7.10;1.52;;;12.00;98.70;;;;;;5031119;28;20053;-77
2022/05/28 05:25:05;;;;;;;8.35;1.52;;;12.10;98.30;;;;;;5030876;28;20037;-77
2022/05/28 05:27:30;;;;;;;7.45;1.25;;;12.20;98.10;;;;;;5030994;28;20072;-77
2022/05/28 05:29:57;;;;;;;14.18;2.50;;;12.20;98.30;;;;;;5030986;28;20448;-76
2022/05/28 05:32:23;;;;;;;11.32;2.13;;;12.20;98.00;;;;;;5031106;28;20033;-77
2022/05/28 05:34:49;;;;;;;14.73;2.28;;;12.30;98.00;;;;;;5030844;28;20025;-79
2022/05/28 05:37:15;;;;;;;8.15;1.40;;;12.30;98.00;;;;;;5030914;28;20034;-79
2022/05/28 05:39:41;;;;;;;10.23;2.90;;;12.40;97.80;;;;;;5031264;28;20033;-79
2022/05/28 05:42:07;;;;;;;15.00;2.20;;;12.30;97.70;;;;;;5029441;28;20443;-78
2022/05/28 05:44:33;;;;;;;7.47;1.50;;;12.20;97.50;;;;;;5030485;28;20128;-78
2022/05/28 05:46:58;;;;;;;10.57;1.15;;;12.20;97.50;;;;;;5030444;28;20108;-78
2022/05/28 05:49:24;;;;;;;7.95;1.58;;;12.30;97.70;;;;;;5029336;28;20360;-79
2022/05/28 05:51:51;;;;;;;12.18;1.70;;;12.20;97.80;;;;;;5030396;28;20061;-80
2022/05/28 05:54:17;;;;;;;9.93;1.60;;;12.40;97.70;;;;;;5030056;28;20034;-77
2022/05/28 05:56:43;;;;;;;7.28;1.55;;;12.40;97.60;;;;;;5030962;28;20040;-77
2022/05/28 05:59:09;;;;;;;12.48;1.40;;;12.40;97.40;;;;;;5029150;28;20033;-78
2022/05/28 06:01:34;;;;;;;11.68;2.00;;;12.30;97.50;;;;;;5029069;28;20038;-77
2022/05/28 06:04:00;;;;;;;13.38;1.42;;;12.30;97.50;;;;;;5029213;28;20099;-77
2022/05/28 06:06:26;;;;;;;10.23;1.42;;;12.50;97.40;;;;;;5030586;28;20048;-77
2022/05/28 06:08:52;;;;;;;12.48;2.05;;;12.50;97.10;;;;;;5030361;28;20084;-78
2022/05/28 06:11:18;;;;;;;12.88;2.10;;;12.50;97.20;;;;;;5030194;28;20062;-78
2022/05/28 06:13:44;;;;;;;9.48;1.35;;;12.40;96.90;;;;;;5030193;28;20033;-77
2022/05/28 06:16:10;;;;;;;14.10;2.22;;;12.60;97.00;;;;;;5030094;28;20443;-79
2022/05/28 06:18:35;;;;;;;12.45;1.38;;;12.60;96.80;;;;;;5030532;28;20094;-79
2022/05/28 06:21:05;;;;;;;12.85;1.60;;;12.60;96.70;;;;;;5029359;28;20116;-77
2022/05/28 06:23:30;;;;;;;12.07;2.38;;;12.70;96.60;;;;;;5030261;28;20033;-78
2022/05/28 06:25:56;;;;;;;12.73;1.95;;;12.80;96.30;;;;;;5030041;28;20452;-78
2022/05/28 06:28:22;;;;;;;11.82;1.63;;;12.60;96.10;;;;;;5029022;28;20229;-78
2022/05/28 06:30:50;;;;;;;6.80;1.45;;;12.60;96.80;;;;;;5032023;28;20038;-77
2022/05/28 06:33:17;;;;;;;10.05;2.47;;;12.70;97.10;;;;;;5034517;28;20021;-76
2022/05/28 06:35:42;;;;;;;12.60;2.55;;;12.70;97.80;;;;;;5032889;28;20095;-76
2022/05/28 06:38:08;;;;;;;14.55;2.60;;;12.60;97.90;;;;;;5032674;28;20434;-76
2022/05/28 06:40:35;;;;;;;14.73;2.53;;;12.60;98.00;;;;;;5033541;28;20418;-76
2022/05/28 06:43:01;;;;;;;12.18;1.90;;;12.70;98.20;;;;;;5033821;28;20386;-76
2022/05/28 06:45:27;;;;;;;11.65;1.58;;;12.60;98.50;;;;;;5034310;28;20316;-76
2022/05/28 06:47:53;;;;;;;9.65;1.55;;;12.50;98.00;;;;;;5032418;28;20061;-77
2022/05/28 06:53:09;;;;;;;7.78;1.50;;;12.50;97.70;;;;;;5033733;28;20060;-78
2022/05/28 06:55:36;;;;;;;12.25;2.05;;;12.50;97.90;;;;;;5033649;28;20056;-78
2022/05/28 06:58:04;;;;;;;10.15;1.63;;;12.60;97.50;;;;;;5033390;28;20032;-77
2022/05/28 07:00:29;;;;;;;14.07;2.47;;;12.60;97.40;;;;;;5034373;28;20033;-77
2022/05/28 07:02:55;;;;;;;10.05;1.65;;;12.60;96.90;;;;;;5033211;28;20045;-77
2022/05/28 07:05:21;;;;;;;12.13;1.60;;;12.60;97.10;;;;;;5013940;28;20117;-77
2022/05/28 07:07:47;;;;;;;10.90;1.48;;;12.60;96.80;;;;;;5013529;28;20038;-76
2022/05/28 07:10:13;;;;;;;13.77;2.38;;;12.80;96.80;;;;;;5013660;28;20109;-77
2022/05/28 07:12:38;;;;;;;10.30;2.17;;;12.80;96.70;;;;;;5013830;28;20036;-77
2022/05/28 07:15:04;;;;;;;19.05;2.25;;;12.90;96.60;;;;;;5013397;28;20411;-77
2022/05/28 07:17:30;;;;;;;6.38;1.40;;;13.00;96.60;;;;;;5013486;28;20040;-75
2022/05/28 07:19:56;;;;;;;10.63;1.52;;;13.10;95.80;;;;;;5013242;28;20030;-78
2022/05/28 07:22:21;;;;;;;15.05;1.90;;;13.30;96.10;;;;;;5013390;28;20458;-78
2022/05/28 07:24:47;;;;;;;9.32;2.30;;;13.30;95.50;;;;;;5013342;28;20348;-78
2022/05/28 07:27:12;;;;;;;11.55;1.83;;;13.40;95.20;;;;;;5013638;28;20037;-78
2022/05/28 07:29:39;;;;;;;15.98;2.08;;;13.50;95.20;;;;;;5013058;28;20030;-77
2022/05/28 07:32:05;;;;;;;15.32;1.88;;;13.70;95.20;;;;;;5012919;28;20121;-76
2022/05/28 07:34:32;;;;;;;11.20;2.00;;;13.80;94.60;;;;;;5013169;28;20053;-77
2022/05/28 07:36:57;;;;;;;11.63;1.75;;;13.70;93.90;;;;;;5013165;28;20026;-77
2022/05/28 07:39:23;;;;;;;16.98;1.63;;;13.70;94.20;;;;;;5012494;28;20053;-77
2022/05/28 07:41:48;;;;;;;12.70;1.88;;;13.90;94.00;;;;;;5011771;28;20064;-78
2022/05/28 07:44:14;;;;;;;13.43;1.75;;;13.90;93.60;;;;;;5012887;28;20160;-77
2022/05/28 07:46:40;;;;;;;11.18;2.45;;;13.70;93.10;;;;;;5013033;28;20390;-78
2022/05/28 07:49:07;;;;;;;8.80;1.58;;;13.60;93.00;;;;;;5012669;28;20094;-80
2022/05/28 07:51:34;;;;;;;15.07;2.03;;;13.60;92.70;;;;;;5013654;28;20041;-77
2022/05/28 07:53:59;;;;;;;16.67;2.27;;;13.40;93.10;;;;;;5012951;28;20364;-78
2022/05/28 07:56:25;;;;;;;9.77;1.33;;;13.40;93.30;;;;;;5012649;28;20041;-78
2022/05/28 07:58:51;;;;;;;14.60;2.65;;;13.50;94.50;;;;;;5011792;28;20172;-80
2022/05/28 08:01:26;;;;;;;9.50;1.77;;;13.20;95.80;;;;;;5011598;28;20466;-79
2022/05/28 08:03:52;;;;;;;11.95;2.17;;;13.20;96.10;;;;;;5012893;28;20037;-86
2022/05/28 08:06:19;;;;;;;15.18;2.90;;;13.30;96.30;;;;;;5013484;28;20037;-79
2022/05/28 08:08:45;;;;;;;12.63;2.10;;;13.50;96.40;;;;;;5013290;28;20354;-82
2022/05/28 08:11:11;;;;;;;8.93;2.22;;;13.30;95.70;;;;;;5012990;28;20180;-79
2022/05/28 08:13:37;;;;;;;9.93;2.10;;;13.40;95.90;;;;;;5012771;28;20034;-78
2022/05/28 08:16:06;;;;;;;9.43;1.70;;;13.60;95.90;;;;;;5012602;28;20040;-80
2022/05/28 08:18:31;;;;;;;13.90;2.60;;;13.60;95.50;;;;;;5028400;28;20026;-79
2022/05/28 08:23:43;;;;;;;12.50;1.90;;;14.00;94.80;;;;;;5012593;28;20193;-79
2022/05/28 08:26:11;;;;;;;12.18;2.10;;;14.00;94.30;;;;;;5012677;28;20084;-77
2022/05/28 08:28:39;;;;;;;11.55;1.90;;;14.30;94.80;;;;;;5016150;28;20037;-77
2022/05/28 08:31:05;;;;;;;13.75;2.22;;;15.10;93.40;;;;;;5032192;28;20030;-79
2022/05/28 08:33:32;;;;;;;8.13;1.90;;;15.80;92.10;;;;;;5034816;28;20035;-80
2022/05/28 08:35:59;;;;;;;4.97;1.15;;;16.30;90.90;;;;;;5033777;28;20034;-81
2022/05/28 08:38:25;;;;;;;8.23;1.73;;;17.80;90.80;;;;;;5033874;28;20036;-78
2022/05/28 08:41:14;;;;;;;7.00;1.80;;;19.00;84.70;;;;;;5035418;28;20063;-78
2022/05/28 08:44:01;;;;;;;7.60;1.70;;;18.10;82.30;;;;;;5037513;28;20032;-82
2022/05/28 08:46:31;;;;;;;9.20;1.70;;;18.40;81.70;;;;;;5036920;28;20030;-78
2022/05/28 08:48:57;;;;;;;10.20;1.80;;;18.90;80.80;;;;;;5032217;28;20348;-80
2022/05/28 08:51:48;;;;;;;7.20;1.70;;;19.40;79.60;;;;;;5033162;28;20017;-80
2022/05/28 08:54:39;;;;;;;9.13;1.73;;;19.80;76.40;;;;;;5030159;28;20489;-81
2022/05/28 08:57:11;;;;;;;5.85;1.70;;;20.40;76.00;;;;;;5030793;28;20124;-82
2022/05/28 08:59:43;;;;;;;6.45;1.33;;;19.60;74.20;;;;;;5032160;28;20026;-81
2022/05/28 09:02:22;;;;;;;7.72;2.13;;;19.90;74.60;;;;;;5032388;28;20034;-84
2022/05/28 09:04:50;;;;;;;9.57;1.83;;;19.70;73.50;;;;;;5032162;28;20022;-86
2022/05/28 09:07:17;;;;;;;14.95;2.10;;;18.70;75.50;;;;;;5031272;28;20037;-83
2022/05/28 09:09:48;;;;;;;8.65;1.83;;;17.70;76.80;;;;;;5033198;28;20041;-88
2022/05/28 09:12:32;;;;;;;5.22;1.45;;;17.00;78.80;;;;;;5031983;28;20040;-82
2022/05/28 09:14:59;;;;;;;9.60;2.10;;;17.00;79.90;;;;;;5031686;28;20029;-81
2022/05/28 09:17:42;;;;;;;4.30;1.10;;;17.10;78.60;;;;;;5032352;28;20108;-82
2022/05/28 09:20:21;;;;;;;4.50;1.55;;;17.10;79.20;;;;;;5032452;28;20033;-79
2022/05/28 09:22:47;;;;;;;6.47;1.23;;;17.50;78.70;;;;;;5031879;28;20057;-84
2022/05/28 09:25:16;;;;;;;4.32;1.38;;;17.80;77.80;;;;;;5032369;28;20037;-85
2022/05/28 09:28:00;;;;;;;11.57;1.80;;;17.30;78.20;;;;;;5031472;28;20091;-87
2022/05/28 09:30:44;;;;;;;9.60;2.17;;;17.00;80.50;;;;;;5032394;28;20038;-81
2022/05/28 09:33:35;;;;;;;6.03;1.40;;;17.30;87.70;;;;;;5030893;28;20426;-82
2022/05/28 09:36:28;;;;;;;6.97;1.10;;;16.60;89.50;;;;;;5031278;28;20037;-83
2022/05/28 09:39:06;;;;;;;9.27;2.10;;;15.60;91.80;;;;;;5031497;28;20047;-84
2022/05/28 09:41:48;;;;;;;8.02;1.63;;;15.50;92.40;;;;;;5031298;28;20053;-83
2022/05/28 09:44:30;;;;;;;7.03;1.48;;;15.20;92.40;;;;;;5031842;28;20041;-83
2022/05/28 09:47:07;;;;;;;3.55;1.55;;;15.30;93.00;;;;;;5031544;28;20030;-85
2022/05/28 09:49:32;;;;;;;7.43;1.40;;;15.30;93.70;;;;;;5031944;28;20113;-84
2022/05/28 09:52:07;;;;;;;8.23;2.15;;;15.60;94.30;;;;;;5031672;28;20105;-81
2022/05/28 09:54:33;;;;;;;7.78;1.88;;;15.80;94.50;;;;;;5030828;28;20018;-83
2022/05/28 09:57:11;;;;;;;9.93;2.00;;;15.40;93.20;;;;;;5031465;28;20041;-82
2022/05/28 10:00:00;;;;;;;7.95;1.63;;;15.40;93.60;;;;;;5030384;28;20022;-81
2022/05/28 10:04:28;;;;;;;10.02;1.65;;;15.70;93.70;;;;;;5029757;28;20175;-80
2022/05/28 10:05:33;;;;;;;5.68;1.55;;;16.00;93.10;;;;;;5029779;28;20119;-74
2022/05/28 10:08:09;;;;;;;10.43;1.77;;;16.30;93.00;;;;;;5029955;28;20459;-75
2022/05/28 10:10:38;;;;;;;5.93;1.50;;;16.50;93.80;;;;;;5029335;28;20380;-76
2022/05/28 10:13:17;;;;;;;8.32;1.85;;;16.70;92.90;;;;;;5030075;28;20103;-75
2022/05/28 10:15:52;;;;;;;10.88;2.33;;;16.40;91.60;;;;;;5029427;28;20537;-75
2022/05/28 10:18:41;;;;;;;5.43;1.35;;;16.20;92.70;;;;;;5030308;28;20033;-77
2022/05/28 10:21:14;;;;;;;7.10;0.93;;;15.50;91.40;;;;;;5030081;28;20025;-74
2022/05/28 10:23:42;;;;;;;5.00;1.00;;;15.30;91.00;;;;;;5030109;28;20055;-74
2022/05/28 10:26:36;;;;;;;4.47;0.77;;;15.10;91.90;;;;;;5030091;28;20034;-76
2022/05/28 10:29:15;;;;;;;7.72;0.70;;;15.10;92.40;;;;;;5028539;28;20438;-78
2022/05/28 10:31:40;;;;;;;3.17;0.77;;;15.10;92.50;;;;;;5029956;28;20033;-76
2022/05/28 10:34:19;;;;;;;6.78;1.42;;;15.50;92.40;;;;;;5030091;28;20053;-80
2022/05/28 10:36:45;;;;;;;5.03;0.70;;;15.80;92.30;;;;;;5029332;28;20384;-83
2022/05/28 10:39:13;;;;;;;6.22;1.25;;;16.00;92.10;;;;;;5031189;28;20013;-77
2022/05/28 10:41:42;;;;;;;5.25;1.30;;;15.80;91.80;;;;;;5029814;28;20041;-78
2022/05/28 10:44:09;;;;;;;9.70;1.88;;;15.80;91.60;;;;;;5030108;28;20026;-80
2022/05/28 10:46:49;;;;;;;6.20;1.80;;;15.30;92.10;;;;;;5030631;28;20095;-85
2022/05/28 10:49:21;;;;;;;7.30;1.45;;;15.50;92.30;;;;;;5029100;28;20071;-81
2022/05/28 10:51:52;;;;;;;2.72;1.45;;;15.30;91.80;;;;;;5030022;28;20033;-80
2022/05/28 10:54:35;;;;;;;5.38;1.23;;;15.50;92.80;;;;;;5030507;28;20464;-79
2022/05/28 10:57:09;;;;;;;8.48;1.80;;;15.50;92.50;;;;;;5029911;28;20451;-78
2022/05/28 11:00:00;;;;;;;12.57;1.88;;;15.10;93.30;;;;;;5030048;28;20119;-82
2022/05/28 11:03:06;;;;;;;9.65;1.80;;;15.40;93.30;;;;;;5029774;28;20126;-84
2022/05/28 11:05:48;;;;;;;7.90;2.13;;;15.80;93.10;;;;;;5030400;28;20064;-80
2022/05/28 11:08:27;;;;;;;9.98;2.08;;;15.50;92.60;;;;;;5030913;28;20140;-81
2022/05/28 11:11:12;;;;;;;9.90;1.88;;;15.20;92.60;;;;;;5030100;28;20053;-76
2022/05/28 11:14:23;;;;;;;4.72;1.50;;;15.20;92.70;;;;;;5029983;28;20037;-82
2022/05/28 11:16:52;;;;;;;5.95;1.20;;;15.20;92.70;;;;;;5022371;28;20370;-82
2022/05/28 11:19:29;;;;;;;;;;;15.30;92.60;;;;;;5034366;28;20048;-79
2022/05/28 11:21:54;;;;;;;6.90;1.67;;;15.70;92.40;;;;;;5033317;28;19904;-80
2022/05/28 11:24:35;;;;;;;9.90;2.05;;;15.70;92.40;;;;;;5034338;28;20368;-82
2022/05/28 11:27:08;;;;;;;9.63;1.73;;;15.80;92.20;;;;;;5033090;28;20029;-81
2022/05/28 11:29:34;;;;;;;5.47;1.35;;;16.00;92.20;;;;;;5033335;28;20029;-81
2022/05/28 11:32:12;;;;;;;7.35;1.77;;;16.20;91.10;;;;;;5033327;28;20541;-83
2022/05/28 11:34:48;;;;;;;12.40;1.92;;;16.50;90.70;;;;;;5033229;28;20052;-81
2022/05/28 11:37:39;;;;;;;9.65;2.20;;;16.50;87.60;;;;;;5033372;28;20034;-82
2022/05/28 11:40:14;;;;;;;7.75;1.70;;;16.50;87.90;;;;;;5032580;28;20459;-79
2022/05/28 11:42:49;;;;;;;11.27;1.88;;;16.70;87.20;;;;;;5033384;28;20124;-79
2022/05/28 11:45:48;;;;;;;11.38;2.33;;;16.80;88.40;;;;;;5033108;28;20396;-81
2022/05/28 11:48:23;;;;;;;11.00;2.67;;;16.50;87.10;;;;;;5032371;28;20124;-77
2022/05/28 11:53:59;;;;;;;7.03;1.55;;;16.20;91.30;;;;;;5032703;28;20107;-78
2022/05/28 11:56:28;;;;;;;8.68;1.75;;;15.90;92.20;;;;;;5032684;28;20389;-82
2022/05/28 11:59:17;;;;;;;10.90;2.47;;;15.50;92.30;;;;;;5032422;28;20056;-77
2022/05/28 12:02:00;;;;;;;11.40;2.15;;;15.60;93.00;;;;;;5032316;28;20045;-81
2022/05/28 12:04:26;;;;;;;8.10;1.58;;;15.80;93.80;;;;;;5032480;28;20033;-79
2022/05/28 12:07:00;;;;;;;5.65;2.13;;;16.00;93.10;;;;;;5032330;28;20036;-80
2022/05/28 12:09:32;;;;;;;11.65;2.17;;;16.20;93.90;;;;;;5031803;28;20140;-79
2022/05/28 12:12:17;;;;;;;10.95;2.00;;;16.50;92.30;;;;;;5032134;28;20538;-82
2022/05/28 12:14:47;;;;;;;10.60;1.92;;;16.40;90.80;;;;;;5032330;28;20049;-85
2022/05/28 12:17:18;;;;;;;11.77;2.33;;;16.40;90.00;;;;;;5032169;28;20029;-83
2022/05/28 12:19:53;;;;;;;10.02;1.55;;;16.50;89.60;;;;;;5031480;28;20025;-84
2022/05/28 12:22:24;;;;;;;7.18;1.63;;;16.30;85.70;;;;;;5031117;28;20033;-83
2022/05/28 12:25:12;;;;;;;7.95;1.40;;;16.40;85.60;;;;;;5032148;28;20033;-84
2022/05/28 12:28:08;;;;;;;7.18;1.45;;;16.60;84.70;;;;;;5030807;28;20159;-83
2022/05/28 12:30:42;;;;;;;6.32;1.77;;;16.90;83.40;;;;;;5030521;28;20033;-81
2022/05/28 12:33:31;;;;;;;8.27;1.55;;;16.80;78.50;;;;;;5032231;28;20471;-87
2022/05/28 12:36:21;;;;;;;8.45;1.40;;;16.70;75.80;;;;;;5031903;28;20103;-78
2022/05/28 12:39:22;;;;;;;13.25;1.92;;;16.80;76.30;;;;;;5031940;28;20111;-83
2022/05/28 12:41:59;;;;;;;6.25;1.67;;;16.90;76.40;;;;;;5031625;28;20091;-82
2022/05/28 12:44:26;;;;;;;7.30;1.40;;;16.90;75.70;;;;;;5032252;28;20033;-81
2022/05/28 12:46:55;;;;;;;8.57;1.80;;;16.90;75.30;;;;;;5032256;28;20029;-84
2022/05/28 12:49:23;;;;;;;;;;;16.90;74.30;;;;;;5031121;28;20045;-84
2022/05/28 12:52:09;;;;;;;9.70;2.08;;;17.10;75.40;;;;;;5030416;28;20351;-80
2022/05/28 12:54:40;;;;;;;6.03;1.77;;;17.30;76.60;;;;;;5031481;28;20033;-83
2022/05/28 12:57:14;;;;;;;10.57;2.53;;;17.40;75.70;;;;;;5032110;28;20029;-83
2022/05/28 12:59:47;;;;;;;6.05;1.73;;;17.50;76.20;;;;;;5031952;28;20411;-79
2022/05/28 13:02:16;;;;;;;9.77;1.65;;;17.30;75.40;;;;;;5030374;28;20033;-83
2022/05/28 13:04:48;;;;;;;12.95;1.60;;;17.20;75.60;;;;;;5032035;28;20399;-87
2022/05/28 13:07:30;;;;;;;5.50;1.48;;;17.20;74.60;;;;;;5032109;28;20033;-86
2022/05/28 13:10:04;;;;;;;10.35;1.90;;;17.40;71.30;;;;;;5030462;28;20021;-84
2022/05/28 13:12:37;;;;;;;5.47;1.65;;;17.50;68.10;;;;;;5032765;28;20017;-84